Terminal Aerodrome Forecast
Issued by NWS Cleveland, OH

Home | Current Version | Previous Version | Graphics & Text | Print | Product List | Glossary On
Versions: 1 2 3 4 5 6 7 8 9 10 11 12 13 14 15 16 17 18 19 20 21
138
FTUS41 KCLE 022342
TAFERI
TAF
KERI 022342Z 0300/0324 08012KT P6SM SCT150 OVC250
     FM030200 13020G32KT P6SM VCSH BKN050 OVC100
     FM030600 16025G40KT 6SM -SHRA SCT025 OVC035
      TEMPO 0306/0310 3SM -TSRA BKN025 OVC035CB
     FM031000 18024G38KT 5SM -RA SCT025 OVC035
     FM031500 21018G30KT P6SM BKN035 OVC050=

USA.gov is the U.S. government's official web portal to all federal, state and local government web resources and services.